sensor_id;sensor_type;location;lat;lon;timestamp;temperature;humidity
14471;DHT22;7321;50.802;4.336;2023-03-26T00:00:47;11.30;99.90
14471;DHT22;7321;50.802;4.336;2023-03-26T00:03:16;11.40;99.90
14471;DHT22;7321;50.802;4.336;2023-03-26T00:05:44;11.40;99.90
14471;DHT22;7321;50.802;4.336;2023-03-26T00:08:13;11.40;99.90
14471;DHT22;7321;50.802;4.336;2023-03-26T00:10:40;11.20;99.90
14471;DHT22;7321;50.802;4.336;2023-03-26T00:13:06;11.30;99.90
14471;DHT22;7321;50.802;4.336;2023-03-26T00:15:34;11.40;99.90
14471;DHT22;7321;50.802;4.336;2023-03-26T00:18:00;11.50;99.90
14471;DHT22;7321;50.802;4.336;2023-03-26T00:20:28;11.60;99.90
14471;DHT22;7321;50.802;4.336;2023-03-26T00:22:54;11.60;99.90
14471;DHT22;7321;50.802;4.336;2023-03-26T00:25:21;11.60;99.90
14471;DHT22;7321;50.802;4.336;2023-03-26T00:27:49;11.60;99.90
14471;DHT22;7321;50.802;4.336;2023-03-26T00:30:15;11.60;99.90
14471;DHT22;7321;50.802;4.336;2023-03-26T00:32:42;11.50;99.90
14471;DHT22;7321;50.802;4.336;2023-03-26T00:35:08;11.40;99.90
14471;DHT22;7321;50.802;4.336;2023-03-26T00:37:35;11.40;99.90
14471;DHT22;7321;50.802;4.336;2023-03-26T00:40:02;11.50;99.90
14471;DHT22;7321;50.802;4.336;2023-03-26T00:42:32;11.50;99.90
14471;DHT22;7321;50.802;4.336;2023-03-26T00:44:58;11.50;99.90
14471;DHT22;7321;50.802;4.336;2023-03-26T00:47:26;11.40;99.90
14471;DHT22;7321;50.802;4.336;2023-03-26T00:49:52;11.50;99.90
14471;DHT22;7321;50.802;4.336;2023-03-26T00:52:19;11.50;99.90
14471;DHT22;7321;50.802;4.336;2023-03-26T00:54:45;11.60;99.90
14471;DHT22;7321;50.802;4.336;2023-03-26T00:57:13;11.50;99.90
14471;DHT22;7321;50.802;4.336;2023-03-26T00:59:39;11.50;99.90
14471;DHT22;7321;50.802;4.336;2023-03-26T01:02:18;11.60;99.90
14471;DHT22;7321;50.802;4.336;2023-03-26T01:04:56;11.60;99.90
14471;DHT22;7321;50.802;4.336;2023-03-26T01:07:24;11.70;99.90
14471;DHT22;7321;50.802;4.336;2023-03-26T01:09:58;11.60;99.90
14471;DHT22;7321;50.802;4.336;2023-03-26T01:12:29;11.30;99.90
14471;DHT22;7321;50.802;4.336;2023-03-26T01:14:59;11.20;99.90
14471;DHT22;7321;50.802;4.336;2023-03-26T01:17:26;11.20;99.90
14471;DHT22;7321;50.802;4.336;2023-03-26T01:20:20;11.20;99.90
14471;DHT22;7321;50.802;4.336;2023-03-26T01:22:54;11.10;99.90
14471;DHT22;7321;50.802;4.336;2023-03-26T01:25:28;11.10;99.90
14471;DHT22;7321;50.802;4.336;2023-03-26T01:27:56;10.90;99.90
14471;DHT22;7321;50.802;4.336;2023-03-26T01:30:41;11.00;99.90
14471;DHT22;7321;50.802;4.336;2023-03-26T01:38:25;10.90;99.90
14471;DHT22;7321;50.802;4.336;2023-03-26T01:41:06;10.80;99.90
14471;DHT22;7321;50.802;4.336;2023-03-26T01:43:53;10.90;99.90
14471;DHT22;7321;50.802;4.336;2023-03-26T01:46:22;11.00;99.90
14471;DHT22;7321;50.802;4.336;2023-03-26T01:48:48;10.90;99.90
14471;DHT22;7321;50.802;4.336;2023-03-26T01:51:29;10.90;99.90
14471;DHT22;7321;50.802;4.336;2023-03-26T01:53:56;11.00;99.90
14471;DHT22;7321;50.802;4.336;2023-03-26T01:56:38;11.20;99.90
14471;DHT22;7321;50.802;4.336;2023-03-26T02:02:44;11.30;99.90
14471;DHT22;7321;50.802;4.336;2023-03-26T02:04:52;11.30;99.90
14471;DHT22;7321;50.802;4.336;2023-03-26T02:07:30;11.20;99.90
14471;DHT22;7321;50.802;4.336;2023-03-26T02:10:09;11.10;99.90
14471;DHT22;7321;50.802;4.336;2023-03-26T02:12:39;10.90;99.90
14471;DHT22;7321;50.802;4.336;2023-03-26T02:15:06;11.00;99.90
14471;DHT22;7321;50.802;4.336;2023-03-26T02:17:32;11.10;99.90
14471;DHT22;7321;50.802;4.336;2023-03-26T02:19:58;11.20;99.90
14471;DHT22;7321;50.802;4.336;2023-03-26T02:22:23;11.20;99.90
14471;DHT22;7321;50.802;4.336;2023-03-26T02:24:54;11.30;99.90
14471;DHT22;7321;50.802;4.336;2023-03-26T02:27:20;11.20;99.90
14471;DHT22;7321;50.802;4.336;2023-03-26T02:29:46;11.30;99.90
14471;DHT22;7321;50.802;4.336;2023-03-26T02:32:12;11.30;99.90
14471;DHT22;7321;50.802;4.336;2023-03-26T02:34:41;11.20;99.90
14471;DHT22;7321;50.802;4.336;2023-03-26T02:37:08;11.20;99.90
14471;DHT22;7321;50.802;4.336;2023-03-26T02:39:34;11.30;99.90
14471;DHT22;7321;50.802;4.336;2023-03-26T02:42:01;11.20;99.90
14471;DHT22;7321;50.802;4.336;2023-03-26T02:44:26;11.20;99.90
14471;DHT22;7321;50.802;4.336;2023-03-26T02:46:52;11.30;99.90
14471;DHT22;7321;50.802;4.336;2023-03-26T02:49:18;11.20;99.90
14471;DHT22;7321;50.802;4.336;2023-03-26T02:51:44;11.10;99.90
14471;DHT22;7321;50.802;4.336;2023-03-26T02:54:10;11.10;99.90
14471;DHT22;7321;50.802;4.336;2023-03-26T02:56:35;11.20;99.90
14471;DHT22;7321;50.802;4.336;2023-03-26T02:59:01;11.10;99.90
14471;DHT22;7321;50.802;4.336;2023-03-26T03:01:27;11.10;99.90
14471;DHT22;7321;50.802;4.336;2023-03-26T03:03:55;11.10;99.90
14471;DHT22;7321;50.802;4.336;2023-03-26T03:06:21;11.10;99.90
14471;DHT22;7321;50.802;4.336;2023-03-26T03:08:47;11.20;99.90
14471;DHT22;7321;50.802;4.336;2023-03-26T03:11:18;11.20;99.90
14471;DHT22;7321;50.802;4.336;2023-03-26T03:13:49;11.20;99.90
14471;DHT22;7321;50.802;4.336;2023-03-26T03:16:16;11.10;99.90
14471;DHT22;7321;50.802;4.336;2023-03-26T03:18:42;11.00;99.90
14471;DHT22;7321;50.802;4.336;2023-03-26T03:21:08;11.10;99.90
14471;DHT22;7321;50.802;4.336;2023-03-26T03:23:34;11.20;99.90
14471;DHT22;7321;50.802;4.336;2023-03-26T03:26:00;11.20;99.90
14471;DHT22;7321;50.802;4.336;2023-03-26T03:28:27;11.00;99.90
14471;DHT22;7321;50.802;4.336;2023-03-26T03:30:52;11.00;99.90
14471;DHT22;7321;50.802;4.336;2023-03-26T03:33:19;11.00;99.90
14471;DHT22;7321;50.802;4.336;2023-03-26T03:35:46;11.00;99.90
14471;DHT22;7321;50.802;4.336;2023-03-26T03:38:15;11.20;99.90
14471;DHT22;7321;50.802;4.336;2023-03-26T03:40:41;11.40;99.90
14471;DHT22;7321;50.802;4.336;2023-03-26T03:43:06;11.20;99.90
14471;DHT22;7321;50.802;4.336;2023-03-26T03:45:32;11.30;99.90
14471;DHT22;7321;50.802;4.336;2023-03-26T03:47:58;11.40;99.90
14471;DHT22;7321;50.802;4.336;2023-03-26T03:50:24;11.40;99.90
14471;DHT22;7321;50.802;4.336;2023-03-26T03:52:51;11.40;99.90
14471;DHT22;7321;50.802;4.336;2023-03-26T03:55:17;11.30;99.90
14471;DHT22;7321;50.802;4.336;2023-03-26T03:57:43;11.40;99.90
14471;DHT22;7321;50.802;4.336;2023-03-26T04:00:10;11.30;99.90
14471;DHT22;7321;50.802;4.336;2023-03-26T04:02:37;11.30;99.90
14471;DHT22;7321;50.802;4.336;2023-03-26T04:05:04;11.20;99.90
14471;DHT22;7321;50.802;4.336;2023-03-26T04:07:31;11.00;99.90
14471;DHT22;7321;50.802;4.336;2023-03-26T04:09:58;10.80;99.90
14471;DHT22;7321;50.802;4.336;2023-03-26T04:12:27;10.70;99.90
14471;DHT22;7321;50.802;4.336;2023-03-26T04:14:53;10.70;99.90
14471;DHT22;7321;50.802;4.336;2023-03-26T04:17:19;10.60;99.90
14471;DHT22;7321;50.802;4.336;2023-03-26T04:19:51;10.70;99.90
14471;DHT22;7321;50.802;4.336;2023-03-26T04:22:18;10.70;99.90
14471;DHT22;7321;50.802;4.336;2023-03-26T04:24:44;10.60;99.90
14471;DHT22;7321;50.802;4.336;2023-03-26T04:27:19;10.50;99.90
14471;DHT22;7321;50.802;4.336;2023-03-26T04:29:47;10.40;99.90
14471;DHT22;7321;50.802;4.336;2023-03-26T04:32:33;10.40;99.90
14471;DHT22;7321;50.802;4.336;2023-03-26T04:35:00;10.50;99.90
14471;DHT22;7321;50.802;4.336;2023-03-26T04:37:35;10.40;99.90
14471;DHT22;7321;50.802;4.336;2023-03-26T04:40:06;10.40;99.90
14471;DHT22;7321;50.802;4.336;2023-03-26T04:42:36;10.30;99.90
14471;DHT22;7321;50.802;4.336;2023-03-26T04:45:06;10.30;99.90
14471;DHT22;7321;50.802;4.336;2023-03-26T04:47:33;10.20;99.90
14471;DHT22;7321;50.802;4.336;2023-03-26T04:50:03;10.20;99.90
14471;DHT22;7321;50.802;4.336;2023-03-26T04:52:29;10.20;99.90
14471;DHT22;7321;50.802;4.336;2023-03-26T04:54:55;10.30;99.90
14471;DHT22;7321;50.802;4.336;2023-03-26T04:57:41;10.40;99.90
14471;DHT22;7321;50.802;4.336;2023-03-26T05:00:13;10.50;99.90
14471;DHT22;7321;50.802;4.336;2023-03-26T05:02:44;10.40;99.90
14471;DHT22;7321;50.802;4.336;2023-03-26T05:05:10;10.40;99.90
14471;DHT22;7321;50.802;4.336;2023-03-26T05:07:37;10.40;99.90
14471;DHT22;7321;50.802;4.336;2023-03-26T05:10:03;10.40;99.90
14471;DHT22;7321;50.802;4.336;2023-03-26T05:12:29;10.40;99.90
14471;DHT22;7321;50.802;4.336;2023-03-26T05:14:55;10.30;99.90
14471;DHT22;7321;50.802;4.336;2023-03-26T05:17:22;10.30;99.90
14471;DHT22;7321;50.802;4.336;2023-03-26T05:19:49;10.30;99.90
14471;DHT22;7321;50.802;4.336;2023-03-26T05:22:17;10.40;99.90
14471;DHT22;7321;50.802;4.336;2023-03-26T05:24:43;10.40;99.90
14471;DHT22;7321;50.802;4.336;2023-03-26T05:27:13;10.60;99.90
14471;DHT22;7321;50.802;4.336;2023-03-26T05:29:42;10.50;99.90
14471;DHT22;7321;50.802;4.336;2023-03-26T05:32:09;10.60;99.90
14471;DHT22;7321;50.802;4.336;2023-03-26T05:34:35;10.60;99.90
14471;DHT22;7321;50.802;4.336;2023-03-26T05:37:03;10.70;99.90
14471;DHT22;7321;50.802;4.336;2023-03-26T05:39:29;10.80;99.90
14471;DHT22;7321;50.802;4.336;2023-03-26T05:41:55;10.80;99.90
14471;DHT22;7321;50.802;4.336;2023-03-26T05:44:20;10.70;99.90
14471;DHT22;7321;50.802;4.336;2023-03-26T05:46:46;10.70;99.90
14471;DHT22;7321;50.802;4.336;2023-03-26T05:49:12;10.60;99.90
14471;DHT22;7321;50.802;4.336;2023-03-26T05:51:38;10.70;99.90
14471;DHT22;7321;50.802;4.336;2023-03-26T05:54:04;10.80;99.90
14471;DHT22;7321;50.802;4.336;2023-03-26T05:56:29;10.80;99.90
14471;DHT22;7321;50.802;4.336;2023-03-26T05:58:56;10.80;99.90
14471;DHT22;7321;50.802;4.336;2023-03-26T06:01:21;10.50;99.90
14471;DHT22;7321;50.802;4.336;2023-03-26T06:03:50;10.50;99.90
14471;DHT22;7321;50.802;4.336;2023-03-26T06:06:18;10.50;99.90
14471;DHT22;7321;50.802;4.336;2023-03-26T06:08:50;10.50;99.90
14471;DHT22;7321;50.802;4.336;2023-03-26T06:11:17;10.40;99.90
14471;DHT22;7321;50.802;4.336;2023-03-26T06:13:44;10.30;99.90
14471;DHT22;7321;50.802;4.336;2023-03-26T06:16:11;10.20;99.90
14471;DHT22;7321;50.802;4.336;2023-03-26T06:18:37;10.20;99.90
14471;DHT22;7321;50.802;4.336;2023-03-26T06:21:04;10.00;99.90
14471;DHT22;7321;50.802;4.336;2023-03-26T06:23:31;10.00;99.90
14471;DHT22;7321;50.802;4.336;2023-03-26T06:25:57;10.00;99.90
14471;DHT22;7321;50.802;4.336;2023-03-26T06:28:23;9.90;99.90
14471;DHT22;7321;50.802;4.336;2023-03-26T06:30:49;9.90;99.90
14471;DHT22;7321;50.802;4.336;2023-03-26T06:33:16;9.90;99.90
14471;DHT22;7321;50.802;4.336;2023-03-26T06:35:42;9.90;99.90
14471;DHT22;7321;50.802;4.336;2023-03-26T06:38:10;9.80;99.90
14471;DHT22;7321;50.802;4.336;2023-03-26T06:40:36;9.90;99.90
14471;DHT22;7321;50.802;4.336;2023-03-26T06:43:02;10.00;99.90
14471;DHT22;7321;50.802;4.336;2023-03-26T06:45:31;10.00;99.90
14471;DHT22;7321;50.802;4.336;2023-03-26T06:47:57;10.20;99.90
14471;DHT22;7321;50.802;4.336;2023-03-26T06:50:23;10.40;99.90
14471;DHT22;7321;50.802;4.336;2023-03-26T06:52:48;10.40;99.90
14471;DHT22;7321;50.802;4.336;2023-03-26T06:55:15;10.20;99.90
14471;DHT22;7321;50.802;4.336;2023-03-26T06:57:41;10.10;99.90
14471;DHT22;7321;50.802;4.336;2023-03-26T07:00:10;10.00;99.90
14471;DHT22;7321;50.802;4.336;2023-03-26T07:02:36;9.90;99.90
14471;DHT22;7321;50.802;4.336;2023-03-26T07:05:02;9.90;99.90
14471;DHT22;7321;50.802;4.336;2023-03-26T07:07:28;10.00;99.90
14471;DHT22;7321;50.802;4.336;2023-03-26T07:09:54;9.80;99.90
14471;DHT22;7321;50.802;4.336;2023-03-26T07:12:19;9.60;99.90
14471;DHT22;7321;50.802;4.336;2023-03-26T07:14:45;9.60;99.90
14471;DHT22;7321;50.802;4.336;2023-03-26T07:17:11;9.60;99.90
14471;DHT22;7321;50.802;4.336;2023-03-26T07:19:37;9.40;99.90
14471;DHT22;7321;50.802;4.336;2023-03-26T07:22:02;9.30;99.90
14471;DHT22;7321;50.802;4.336;2023-03-26T07:24:29;9.30;99.90
14471;DHT22;7321;50.802;4.336;2023-03-26T07:29:44;9.30;99.90
14471;DHT22;7321;50.802;4.336;2023-03-26T07:34:52;9.30;99.90
14471;DHT22;7321;50.802;4.336;2023-03-26T07:37:25;9.30;99.90
14471;DHT22;7321;50.802;4.336;2023-03-26T07:45:28;9.10;99.90
14471;DHT22;7321;50.802;4.336;2023-03-26T07:47:57;9.10;99.90
14471;DHT22;7321;50.802;4.336;2023-03-26T07:50:24;9.10;99.90
14471;DHT22;7321;50.802;4.336;2023-03-26T07:52:51;9.00;99.90
14471;DHT22;7321;50.802;4.336;2023-03-26T07:55:17;8.80;99.90
14471;DHT22;7321;50.802;4.336;2023-03-26T07:57:55;8.80;99.90
14471;DHT22;7321;50.802;4.336;2023-03-26T08:00:41;8.90;99.90
14471;DHT22;7321;50.802;4.336;2023-03-26T08:05:59;9.30;99.90
14471;DHT22;7321;50.802;4.336;2023-03-26T08:08:47;9.50;99.90
14471;DHT22;7321;50.802;4.336;2023-03-26T08:17:07;9.20;99.90
14471;DHT22;7321;50.802;4.336;2023-03-26T08:19:54;9.00;99.90
14471;DHT22;7321;50.802;4.336;2023-03-26T08:22:44;9.00;99.90
14471;DHT22;7321;50.802;4.336;2023-03-26T08:25:42;8.90;99.90
14471;DHT22;7321;50.802;4.336;2023-03-26T08:28:50;8.80;99.90
14471;DHT22;7321;50.802;4.336;2023-03-26T08:31:26;8.80;99.90
14471;DHT22;7321;50.802;4.336;2023-03-26T08:33:53;8.80;99.90
14471;DHT22;7321;50.802;4.336;2023-03-26T08:36:19;8.90;99.90
14471;DHT22;7321;50.802;4.336;2023-03-26T08:38:45;9.10;99.90
14471;DHT22;7321;50.802;4.336;2023-03-26T09:05:58;8.80;99.90
14471;DHT22;7321;50.802;4.336;2023-03-26T09:08:58;8.80;99.90
14471;DHT22;7321;50.802;4.336;2023-03-26T09:39:22;9.10;99.90
14471;DHT22;7321;50.802;4.336;2023-03-26T09:42:04;9.10;99.90
14471;DHT22;7321;50.802;4.336;2023-03-26T09:50:07;9.10;99.90
14471;DHT22;7321;50.802;4.336;2023-03-26T09:55:20;9.10;99.90
14471;DHT22;7321;50.802;4.336;2023-03-26T10:03:17;9.10;99.90
14471;DHT22;7321;50.802;4.336;2023-03-26T10:17:30;9.20;99.90
14471;DHT22;7321;50.802;4.336;2023-03-26T10:20:25;9.00;99.90
14471;DHT22;7321;50.802;4.336;2023-03-26T10:23:07;8.80;99.90
14471;DHT22;7321;50.802;4.336;2023-03-26T10:26:04;8.90;99.90
14471;DHT22;7321;50.802;4.336;2023-03-26T10:31:43;9.10;99.90
14471;DHT22;7321;50.802;4.336;2023-03-26T10:39:53;8.60;99.90
14471;DHT22;7321;50.802;4.336;2023-03-26T10:54:05;8.90;99.90
14471;DHT22;7321;50.802;4.336;2023-03-26T10:56:46;9.00;99.90
14471;DHT22;7321;50.802;4.336;2023-03-26T10:59:15;9.00;99.90
14471;DHT22;7321;50.802;4.336;2023-03-26T11:09:58;9.00;99.90
14471;DHT22;7321;50.802;4.336;2023-03-26T11:12:47;8.90;99.90
14471;DHT22;7321;50.802;4.336;2023-03-26T11:15:34;9.00;99.90
14471;DHT22;7321;50.802;4.336;2023-03-26T11:18:33;9.10;99.90
14471;DHT22;7321;50.802;4.336;2023-03-26T11:26:13;9.30;99.90
14471;DHT22;7321;50.802;4.336;2023-03-26T11:33:58;9.10;99.90
14471;DHT22;7321;50.802;4.336;2023-03-26T11:36:34;9.00;99.90
14471;DHT22;7321;50.802;4.336;2023-03-26T11:39:05;9.10;99.90
14471;DHT22;7321;50.802;4.336;2023-03-26T11:41:35;9.10;99.90
14471;DHT22;7321;50.802;4.336;2023-03-26T11:44:04;9.20;99.90
14471;DHT22;7321;50.802;4.336;2023-03-26T11:46:37;9.40;99.90
14471;DHT22;7321;50.802;4.336;2023-03-26T11:49:08;9.40;99.90
14471;DHT22;7321;50.802;4.336;2023-03-26T11:51:37;9.50;99.90
14471;DHT22;7321;50.802;4.336;2023-03-26T11:54:05;9.50;99.90
14471;DHT22;7321;50.802;4.336;2023-03-26T11:56:56;9.50;99.90
14471;DHT22;7321;50.802;4.336;2023-03-26T11:59:27;9.50;99.90
14471;DHT22;7321;50.802;4.336;2023-03-26T12:07:15;9.30;99.90
14471;DHT22;7321;50.802;4.336;2023-03-26T12:10:23;9.40;99.90
14471;DHT22;7321;50.802;4.336;2023-03-26T12:12:52;9.50;99.90
14471;DHT22;7321;50.802;4.336;2023-03-26T12:15:20;9.50;99.90
14471;DHT22;7321;50.802;4.336;2023-03-26T12:17:49;9.60;99.90
14471;DHT22;7321;50.802;4.336;2023-03-26T12:22:57;9.80;99.90
14471;DHT22;7321;50.802;4.336;2023-03-26T12:25:25;9.90;99.90
14471;DHT22;7321;50.802;4.336;2023-03-26T12:27:59;9.90;99.90
14471;DHT22;7321;50.802;4.336;2023-03-26T12:30:36;9.90;99.90
14471;DHT22;7321;50.802;4.336;2023-03-26T12:33:33;9.90;99.90
14471;DHT22;7321;50.802;4.336;2023-03-26T12:36:24;9.80;99.90
14471;DHT22;7321;50.802;4.336;2023-03-26T12:38:52;9.80;99.90
14471;DHT22;7321;50.802;4.336;2023-03-26T12:41:19;9.80;99.90
14471;DHT22;7321;50.802;4.336;2023-03-26T12:43:51;9.90;99.90
14471;DHT22;7321;50.802;4.336;2023-03-26T12:46:34;10.00;99.90
14471;DHT22;7321;50.802;4.336;2023-03-26T12:49:03;10.10;99.90
14471;DHT22;7321;50.802;4.336;2023-03-26T12:54:40;9.90;99.90
14471;DHT22;7321;50.802;4.336;2023-03-26T12:57:17;9.80;99.90
14471;DHT22;7321;50.802;4.336;2023-03-26T12:59:47;9.70;99.90
14471;DHT22;7321;50.802;4.336;2023-03-26T13:05:00;9.90;99.90
14471;DHT22;7321;50.802;4.336;2023-03-26T13:12:51;10.10;99.90
14471;DHT22;7321;50.802;4.336;2023-03-26T13:15:35;10.30;99.90
14471;DHT22;7321;50.802;4.336;2023-03-26T13:23:29;10.60;99.90
14471;DHT22;7321;50.802;4.336;2023-03-26T13:34:54;10.10;99.90
14471;DHT22;7321;50.802;4.336;2023-03-26T13:48:20;9.70;99.90
14471;DHT22;7321;50.802;4.336;2023-03-26T13:51:03;9.70;99.90
14471;DHT22;7321;50.802;4.336;2023-03-26T13:53:40;9.90;99.90
14471;DHT22;7321;50.802;4.336;2023-03-26T13:56:12;9.90;99.90
14471;DHT22;7321;50.802;4.336;2023-03-26T13:58:45;10.10;99.90
14471;DHT22;7321;50.802;4.336;2023-03-26T14:01:29;10.10;99.90
14471;DHT22;7321;50.802;4.336;2023-03-26T14:06:58;10.00;99.90
14471;DHT22;7321;50.802;4.336;2023-03-26T14:12:31;9.90;99.90
14471;DHT22;7321;50.802;4.336;2023-03-26T14:15:04;10.00;99.90
14471;DHT22;7321;50.802;4.336;2023-03-26T14:17:41;10.10;99.90
14471;DHT22;7321;50.802;4.336;2023-03-26T14:27:03;9.90;99.90
14471;DHT22;7321;50.802;4.336;2023-03-26T14:29:36;9.80;99.90
14471;DHT22;7321;50.802;4.336;2023-03-26T14:42:41;10.20;99.90
14471;DHT22;7321;50.802;4.336;2023-03-26T14:53:37;10.40;99.90
14471;DHT22;7321;50.802;4.336;2023-03-26T15:31:15;10.10;99.90
14471;DHT22;7321;50.802;4.336;2023-03-26T15:34:07;10.00;99.90
14471;DHT22;7321;50.802;4.336;2023-03-26T15:36:58;9.90;99.90
14471;DHT22;7321;50.802;4.336;2023-03-26T15:44:56;10.30;99.90
14471;DHT22;7321;50.802;4.336;2023-03-26T15:53:22;10.20;99.90
14471;DHT22;7321;50.802;4.336;2023-03-26T15:56:04;10.40;99.90
14471;DHT22;7321;50.802;4.336;2023-03-26T15:58:47;10.20;99.90
14471;DHT22;7321;50.802;4.336;2023-03-26T16:01:33;10.00;99.90
14471;DHT22;7321;50.802;4.336;2023-03-26T16:04:28;9.90;99.90
14471;DHT22;7321;50.802;4.336;2023-03-26T16:07:33;9.90;99.90
14471;DHT22;7321;50.802;4.336;2023-03-26T16:15:37;9.70;99.90
14471;DHT22;7321;50.802;4.336;2023-03-26T16:18:14;9.50;99.90
14471;DHT22;7321;50.802;4.336;2023-03-26T16:20:54;9.40;99.90
14471;DHT22;7321;50.802;4.336;2023-03-26T16:33:58;9.00;99.90
14471;DHT22;7321;50.802;4.336;2023-03-26T16:36:41;9.10;99.90
14471;DHT22;7321;50.802;4.336;2023-03-26T16:41:53;9.30;99.90
14471;DHT22;7321;50.802;4.336;2023-03-26T16:44:31;9.20;99.90
14471;DHT22;7321;50.802;4.336;2023-03-26T16:47:20;9.40;99.90
14471;DHT22;7321;50.802;4.336;2023-03-26T16:52:36;9.50;99.90
14471;DHT22;7321;50.802;4.336;2023-03-26T16:55:34;9.40;99.90
14471;DHT22;7321;50.802;4.336;2023-03-26T17:03:51;9.60;99.90
14471;DHT22;7321;50.802;4.336;2023-03-26T17:06:30;9.70;99.90
14471;DHT22;7321;50.802;4.336;2023-03-26T17:09:16;9.70;99.90
14471;DHT22;7321;50.802;4.336;2023-03-26T17:11:58;9.40;99.90
14471;DHT22;7321;50.802;4.336;2023-03-26T17:14:44;9.30;99.90
14471;DHT22;7321;50.802;4.336;2023-03-26T17:17:25;9.10;99.90
14471;DHT22;7321;50.802;4.336;2023-03-26T17:33:21;9.30;99.90
14471;DHT22;7321;50.802;4.336;2023-03-26T17:35:50;9.20;99.90
14471;DHT22;7321;50.802;4.336;2023-03-26T17:40:48;9.30;99.90
14471;DHT22;7321;50.802;4.336;2023-03-26T17:43:46;9.30;99.90
14471;DHT22;7321;50.802;4.336;2023-03-26T17:54:23;9.10;99.90
14471;DHT22;7321;50.802;4.336;2023-03-26T17:56:54;9.10;99.90
14471;DHT22;7321;50.802;4.336;2023-03-26T17:59:22;8.90;99.90
14471;DHT22;7321;50.802;4.336;2023-03-26T18:01:56;8.90;99.90
14471;DHT22;7321;50.802;4.336;2023-03-26T18:04:36;8.90;99.90
14471;DHT22;7321;50.802;4.336;2023-03-26T18:15:57;9.00;99.90
14471;DHT22;7321;50.802;4.336;2023-03-26T18:18:39;9.10;99.90
14471;DHT22;7321;50.802;4.336;2023-03-26T18:21:10;9.10;99.90
14471;DHT22;7321;50.802;4.336;2023-03-26T18:23:40;9.00;99.90
14471;DHT22;7321;50.802;4.336;2023-03-26T18:26:18;9.00;99.90
14471;DHT22;7321;50.802;4.336;2023-03-26T18:28:50;9.10;99.90
14471;DHT22;7321;50.802;4.336;2023-03-26T18:31:21;9.10;99.90
14471;DHT22;7321;50.802;4.336;2023-03-26T18:33:49;9.10;99.90
14471;DHT22;7321;50.802;4.336;2023-03-26T18:36:19;9.10;99.90
14471;DHT22;7321;50.802;4.336;2023-03-26T18:38:49;9.20;99.90
14471;DHT22;7321;50.802;4.336;2023-03-26T18:41:28;9.10;99.90
14471;DHT22;7321;50.802;4.336;2023-03-26T18:44:00;9.10;99.90
14471;DHT22;7321;50.802;4.336;2023-03-26T18:46:27;8.90;99.90
14471;DHT22;7321;50.802;4.336;2023-03-26T18:48:53;8.90;99.90
14471;DHT22;7321;50.802;4.336;2023-03-26T18:51:20;8.80;99.90
14471;DHT22;7321;50.802;4.336;2023-03-26T18:53:51;8.80;99.90
14471;DHT22;7321;50.802;4.336;2023-03-26T18:56:35;8.80;99.90
14471;DHT22;7321;50.802;4.336;2023-03-26T18:59:05;8.90;99.90
14471;DHT22;7321;50.802;4.336;2023-03-26T19:01:34;8.90;99.90
14471;DHT22;7321;50.802;4.336;2023-03-26T19:04:04;8.60;99.90
14471;DHT22;7321;50.802;4.336;2023-03-26T19:06:34;8.50;99.90
14471;DHT22;7321;50.802;4.336;2023-03-26T19:09:07;8.40;99.90
14471;DHT22;7321;50.802;4.336;2023-03-26T19:11:37;8.30;99.90
14471;DHT22;7321;50.802;4.336;2023-03-26T19:14:16;8.30;99.90
14471;DHT22;7321;50.802;4.336;2023-03-26T19:16:50;8.30;99.90
14471;DHT22;7321;50.802;4.336;2023-03-26T19:19:24;8.20;99.90
14471;DHT22;7321;50.802;4.336;2023-03-26T19:21:50;8.20;99.90
14471;DHT22;7321;50.802;4.336;2023-03-26T19:24:18;8.20;99.90
14471;DHT22;7321;50.802;4.336;2023-03-26T19:26:46;8.20;99.90
14471;DHT22;7321;50.802;4.336;2023-03-26T19:29:38;8.10;99.90
14471;DHT22;7321;50.802;4.336;2023-03-26T19:32:21;8.20;99.90
14471;DHT22;7321;50.802;4.336;2023-03-26T19:34:52;8.20;99.90
14471;DHT22;7321;50.802;4.336;2023-03-26T19:37:25;8.20;99.90
14471;DHT22;7321;50.802;4.336;2023-03-26T19:39:53;8.30;99.90
14471;DHT22;7321;50.802;4.336;2023-03-26T19:42:28;8.30;99.90
14471;DHT22;7321;50.802;4.336;2023-03-26T19:44:58;8.00;99.90
14471;DHT22;7321;50.802;4.336;2023-03-26T19:47:37;7.90;99.90
14471;DHT22;7321;50.802;4.336;2023-03-26T19:50:21;7.90;99.90
14471;DHT22;7321;50.802;4.336;2023-03-26T19:55:36;7.90;99.90
14471;DHT22;7321;50.802;4.336;2023-03-26T19:58:03;7.90;99.90
14471;DHT22;7321;50.802;4.336;2023-03-26T20:00:30;7.90;99.90
14471;DHT22;7321;50.802;4.336;2023-03-26T20:02:56;8.00;99.90
14471;DHT22;7321;50.802;4.336;2023-03-26T20:05:24;8.10;99.90
14471;DHT22;7321;50.802;4.336;2023-03-26T20:07:53;8.00;99.90
14471;DHT22;7321;50.802;4.336;2023-03-26T20:10:19;7.90;99.90
14471;DHT22;7321;50.802;4.336;2023-03-26T20:12:45;7.70;99.90
14471;DHT22;7321;50.802;4.336;2023-03-26T20:17:41;7.50;99.90
14471;DHT22;7321;50.802;4.336;2023-03-26T20:20:10;7.50;99.90
14471;DHT22;7321;50.802;4.336;2023-03-26T20:22:37;7.50;99.90
14471;DHT22;7321;50.802;4.336;2023-03-26T20:25:30;7.40;99.90
14471;DHT22;7321;50.802;4.336;2023-03-26T20:27:57;7.50;99.90
14471;DHT22;7321;50.802;4.336;2023-03-26T20:30:24;7.50;99.90
14471;DHT22;7321;50.802;4.336;2023-03-26T20:32:50;7.50;99.90
14471;DHT22;7321;50.802;4.336;2023-03-26T20:35:21;7.60;99.90
14471;DHT22;7321;50.802;4.336;2023-03-26T20:37:47;7.60;99.90
14471;DHT22;7321;50.802;4.336;2023-03-26T20:40:13;7.40;99.90
14471;DHT22;7321;50.802;4.336;2023-03-26T20:42:43;7.50;99.90
14471;DHT22;7321;50.802;4.336;2023-03-26T20:45:16;7.50;99.90
14471;DHT22;7321;50.802;4.336;2023-03-26T20:47:47;7.50;99.90
14471;DHT22;7321;50.802;4.336;2023-03-26T20:50:20;7.40;99.90
14471;DHT22;7321;50.802;4.336;2023-03-26T20:52:49;7.50;99.90
14471;DHT22;7321;50.802;4.336;2023-03-26T20:55:18;7.60;99.90
14471;DHT22;7321;50.802;4.336;2023-03-26T20:57:46;7.50;99.90
14471;DHT22;7321;50.802;4.336;2023-03-26T21:00:14;7.50;99.90
14471;DHT22;7321;50.802;4.336;2023-03-26T21:02:44;7.40;99.90
14471;DHT22;7321;50.802;4.336;2023-03-26T21:05:10;7.30;99.90
14471;DHT22;7321;50.802;4.336;2023-03-26T21:07:43;7.40;99.90
14471;DHT22;7321;50.802;4.336;2023-03-26T21:10:13;7.40;99.90
14471;DHT22;7321;50.802;4.336;2023-03-26T21:13:06;7.40;99.90
14471;DHT22;7321;50.802;4.336;2023-03-26T21:15:33;7.40;99.90
14471;DHT22;7321;50.802;4.336;2023-03-26T21:17:59;7.30;99.90
14471;DHT22;7321;50.802;4.336;2023-03-26T21:20:26;7.40;99.90
14471;DHT22;7321;50.802;4.336;2023-03-26T21:28:23;7.30;99.90
14471;DHT22;7321;50.802;4.336;2023-03-26T21:30:51;7.40;99.90
14471;DHT22;7321;50.802;4.336;2023-03-26T21:33:17;7.30;99.90
14471;DHT22;7321;50.802;4.336;2023-03-26T21:35:43;7.20;99.90
14471;DHT22;7321;50.802;4.336;2023-03-26T21:38:10;7.30;99.90
14471;DHT22;7321;50.802;4.336;2023-03-26T21:40:36;7.30;99.90
14471;DHT22;7321;50.802;4.336;2023-03-26T21:43:03;7.30;99.90
14471;DHT22;7321;50.802;4.336;2023-03-26T21:45:29;7.30;99.90
14471;DHT22;7321;50.802;4.336;2023-03-26T21:47:55;7.20;99.90
14471;DHT22;7321;50.802;4.336;2023-03-26T21:50:22;7.10;99.90
14471;DHT22;7321;50.802;4.336;2023-03-26T21:52:49;7.20;99.90
14471;DHT22;7321;50.802;4.336;2023-03-26T21:55:21;7.10;99.90
14471;DHT22;7321;50.802;4.336;2023-03-26T21:58:15;7.10;99.90
14471;DHT22;7321;50.802;4.336;2023-03-26T22:06:37;7.20;99.90